Time;durP1;ratioP1;P1;durP2;ratioP2;P2;SDS_P1;SDS_P2;PMS_P1;PMS_P2;Temp;Humidity;BMP_temperature;BMP_pressure;BME280_temperature;BME280_humidity;BME280_pressure;Samples;Min_cycle;Max_cycle;Signal;HPM_P1;HPM_P2
2021/09/23 00:02:25;;;;;;;30.83;21.55;;;;;;;11.45;87.59;101940.34;4983447;28;20504;-76
2021/09/23 00:04:52;;;;;;;33.25;21.23;;;;;;;11.45;87.35;101942.94;4982784;28;20133;-77
2021/09/23 00:07:18;;;;;;;36.97;22.55;;;;;;;11.44;87.29;101946.41;4986171;28;20046;-75
2021/09/23 00:09:45;;;;;;;32.70;21.42;;;;;;;11.42;87.44;101942.97;4988499;28;20051;-77
2021/09/23 00:12:12;;;;;;;32.38;21.73;;;;;;;11.41;87.32;101940.34;4988256;28;20054;-76
2021/09/23 00:14:40;;;;;;;40.03;22.65;;;;;;;11.36;87.60;101945.59;4985873;28;20046;-76
2021/09/23 00:17:06;;;;;;;34.58;21.13;;;;;;;11.33;87.18;101936.06;4980553;28;20058;-76
2021/09/23 00:19:33;;;;;;;33.90;21.73;;;;;;;11.31;87.38;101929.13;4982848;28;20061;-76
2021/09/23 00:21:59;;;;;;;37.97;21.17;;;;;;;11.27;87.50;101932.59;4982695;28;20051;-76
2021/09/23 00:24:26;;;;;;;33.70;21.92;;;;;;;11.25;87.58;101929.13;4982577;28;20042;-76
2021/09/23 00:26:53;;;;;;;32.53;21.50;;;;;;;11.28;88.09;101924.75;4983426;28;20053;-76
2021/09/23 00:29:19;;;;;;;34.60;21.13;;;;;;;11.28;88.07;101923.91;4985913;28;20513;-76
2021/09/23 00:31:47;;;;;;;32.55;21.27;;;;;;;11.28;88.00;101924.75;4984329;28;20457;-76
2021/09/23 00:34:13;;;;;;;31.48;20.33;;;;;;;11.28;88.23;101923.91;4983049;28;20057;-76
2021/09/23 00:36:40;;;;;;;32.20;20.85;;;;;;;11.28;88.06;101916.09;4980914;28;20057;-75
2021/09/23 00:39:06;;;;;;;34.72;20.48;;;;;;;11.28;87.99;101914.34;4979602;28;20062;-77
2021/09/23 00:41:33;;;;;;;32.38;19.52;;;;;;;11.28;87.92;101911.75;4982576;28;20050;-76
2021/09/23 00:44:13;;;;;;;29.95;18.10;;;;;;;11.26;87.76;101899.59;4978317;28;20042;-76
2021/09/23 00:46:39;;;;;;;35.60;20.42;;;;;;;11.22;88.11;101895.28;4985827;28;20046;-75
2021/09/23 00:49:07;;;;;;;33.88;19.92;;;;;;;11.17;88.12;101883.13;4977158;28;20577;-77
2021/09/23 00:51:33;;;;;;;33.53;19.02;;;;;;;11.14;87.94;101879.69;4989286;28;20054;-77
2021/09/23 00:54:01;;;;;;;31.73;19.67;;;;;;;11.15;88.16;101886.63;4988276;28;20501;-77
2021/09/23 00:56:28;;;;;;;29.52;18.85;;;;;;;11.11;88.76;101888.38;4985928;28;20050;-77
2021/09/23 00:58:54;;;;;;;31.77;19.40;;;;;;;11.09;88.67;101881.41;4984315;28;20049;-77
2021/09/23 01:01:21;;;;;;;31.02;19.98;;;;;;;11.06;88.50;101865.81;4983249;28;20128;-77
2021/09/23 01:03:47;;;;;;;29.48;19.33;;;;;;;11.03;88.70;101861.47;5001180;28;20460;-77
2021/09/23 01:06:15;;;;;;;30.20;18.52;;;;;;;11.02;88.89;101857.16;4987242;28;20465;-75
2021/09/23 01:08:52;;;;;;;31.75;18.73;;;;;;;10.99;88.97;101860.63;4983041;28;20058;-75
2021/09/23 01:11:18;;;;;;;35.00;18.52;;;;;;;10.99;89.22;101859.75;4985217;28;20049;-76
2021/09/23 01:13:45;;;;;;;33.50;20.20;;;;;;;10.97;89.26;101851.97;4989507;28;20408;-76
2021/09/23 01:16:12;;;;;;;28.30;19.20;;;;;;;10.97;89.05;101848.47;4992013;28;20050;-76
2021/09/23 01:18:39;;;;;;;32.00;19.63;;;;;;;10.94;89.13;101851.97;4987764;28;20078;-76
2021/09/23 01:21:07;;;;;;;31.65;19.73;;;;;;;10.96;89.58;101855.44;4986231;28;20086;-76
2021/09/23 01:23:36;;;;;;;34.65;19.40;;;;;;;10.95;89.41;101845.00;4989077;28;20042;-75
2021/09/23 01:26:03;;;;;;;37.85;20.55;;;;;;;10.95;89.28;101843.28;4977466;28;20070;-75
2021/09/23 01:28:29;;;;;;;28.35;18.63;;;;;;;10.93;89.56;101841.56;4978705;28;20047;-75
2021/09/23 01:30:56;;;;;;;32.75;20.77;;;;;;;10.87;89.73;101835.50;4988888;28;20088;-75
2021/09/23 01:33:22;;;;;;;28.10;18.35;;;;;;;10.86;89.59;101827.69;4992085;28;20047;-75
2021/09/23 01:35:49;;;;;;;30.70;17.92;;;;;;;10.85;89.60;101824.22;4978850;28;20502;-75
2021/09/23 01:38:16;;;;;;;29.80;17.80;;;;;;;10.86;89.46;101827.69;4978201;28;20055;-76
2021/09/23 01:40:43;;;;;;;33.60;19.60;;;;;;;10.85;89.53;101821.63;4985766;28;20050;-76
2021/09/23 01:43:09;;;;;;;31.67;19.48;;;;;;;10.80;89.43;101820.78;4989707;28;20046;-76
2021/09/23 01:45:36;;;;;;;33.75;20.13;;;;;;;10.81;89.56;101830.31;4988031;28;20050;-76
2021/09/23 01:48:03;;;;;;;26.75;17.77;;;;;;;10.80;89.54;101823.38;4991388;28;20046;-76
2021/09/23 01:50:29;;;;;;;32.15;19.40;;;;;;;10.78;89.12;101827.72;4980426;28;20054;-76
2021/09/23 01:52:56;;;;;;;31.88;19.10;;;;;;;10.77;89.46;101823.38;4983646;28;20437;-76
2021/09/23 01:55:24;;;;;;;31.55;18.73;;;;;;;10.73;89.65;101822.53;4980996;28;20061;-76
2021/09/23 01:57:50;;;;;;;30.95;20.08;;;;;;;10.74;89.69;101818.16;4993211;28;20057;-76
2021/09/23 02:00:18;;;;;;;36.63;20.40;;;;;;;10.72;89.45;101807.78;4978255;28;20046;-75
2021/09/23 02:02:44;;;;;;;35.25;20.17;;;;;;;10.68;89.82;101807.78;4983015;28;20054;-76
2021/09/23 02:05:11;;;;;;;30.65;18.48;;;;;;;10.65;89.74;101795.66;4977690;28;20051;-76
2021/09/23 02:07:38;;;;;;;31.70;19.52;;;;;;;10.67;89.15;101793.03;4990617;28;20169;-76
2021/09/23 02:10:05;;;;;;;32.08;19.48;;;;;;;10.63;89.38;101788.72;4982077;28;20050;-76
2021/09/23 02:12:33;;;;;;;30.15;19.55;;;;;;;10.58;89.28;101789.59;4996543;28;20430;-77
2021/09/23 02:14:59;;;;;;;32.65;19.70;;;;;;;10.61;89.49;101795.66;4983252;28;20054;-76
2021/09/23 02:17:26;;;;;;;32.75;19.45;;;;;;;10.56;90.05;101793.09;4993254;28;20050;-76
2021/09/23 02:19:53;;;;;;;38.03;20.65;;;;;;;10.54;89.88;101790.47;4979912;28;20474;-76
2021/09/23 02:22:19;;;;;;;31.90;20.25;;;;;;;10.58;90.50;101791.34;4988435;28;20407;-76
2021/09/23 02:24:46;;;;;;;31.52;19.38;;;;;;;10.59;90.36;101787.84;4986398;28;20042;-76
2021/09/23 02:27:12;;;;;;;34.10;19.33;;;;;;;10.59;90.31;101795.66;4979049;28;20074;-76
2021/09/23 02:29:41;;;;;;;33.15;18.85;;;;;;;10.58;90.34;101791.34;4986256;28;20067;-75
2021/09/23 02:32:08;;;;;;;34.67;18.00;;;;;;;10.55;90.40;101786.13;4991982;28;20045;-76
2021/09/23 02:34:35;;;;;;;32.38;19.10;;;;;;;10.52;90.36;101771.41;4996751;28;20105;-76
2021/09/23 02:37:02;;;;;;;30.65;18.77;;;;;;;10.54;90.19;101769.66;4983278;28;20105;-76
2021/09/23 02:39:28;;;;;;;37.05;18.73;;;;;;;10.50;90.50;101765.34;4988959;28;20058;-76
2021/09/23 02:41:55;;;;;;;33.47;18.85;;;;;;;10.47;90.28;101765.34;4992009;28;20054;-76
2021/09/23 02:44:21;;;;;;;33.35;19.90;;;;;;;10.44;90.19;101767.94;4975277;28;20656;-75
2021/09/23 02:46:49;;;;;;;36.20;21.70;;;;;;;10.39;90.81;101764.50;4983209;28;20077;-75
2021/09/23 02:49:16;;;;;;;34.15;18.73;;;;;;;10.40;91.05;101771.44;4987208;28;20046;-76
2021/09/23 02:51:43;;;;;;;31.30;19.25;;;;;;;10.39;90.89;101775.75;4992452;28;20099;-76
2021/09/23 02:54:09;;;;;;;32.78;20.50;;;;;;;10.41;91.25;101778.38;4983848;28;20058;-75
2021/09/23 02:56:36;;;;;;;30.10;18.85;;;;;;;10.43;91.18;101774.03;4987046;28;20049;-75
2021/09/23 02:59:02;;;;;;;31.42;19.70;;;;;;;10.41;90.87;101778.38;4991815;28;20049;-75
2021/09/23 03:01:29;;;;;;;37.15;19.38;;;;;;;10.39;91.13;101780.09;5001688;28;20057;-76
2021/09/23 03:03:56;;;;;;;33.33;17.55;;;;;;;10.40;90.84;101781.84;4996655;28;20050;-76
2021/09/23 03:06:23;;;;;;;33.42;18.65;;;;;;;10.37;90.72;101776.59;4985522;28;20050;-75
2021/09/23 03:08:49;;;;;;;32.25;18.45;;;;;;;10.30;90.26;101772.28;4990407;28;20046;-76
2021/09/23 03:11:16;;;;;;;30.33;17.08;;;;;;;10.27;90.59;101781.81;4994607;28;20494;-76
2021/09/23 03:13:43;;;;;;;33.10;19.20;;;;;;;10.27;90.68;101780.97;4994055;28;20065;-76
2021/09/23 03:16:09;;;;;;;31.30;18.92;;;;;;;10.29;90.66;101770.53;4999267;28;20046;-76
2021/09/23 03:18:35;;;;;;;37.60;19.70;;;;;;;10.22;90.82;101761.88;4991399;28;20050;-75
2021/09/23 03:21:04;;;;;;;32.38;20.05;;;;;;;10.15;90.67;101742.81;5003986;28;20039;-75
2021/09/23 03:23:30;;;;;;;37.25;19.98;;;;;;;10.17;90.92;101722.88;5015401;28;20030;-75
2021/09/23 03:25:57;;;;;;;29.73;19.52;;;;;;;10.10;90.55;101715.97;5011536;28;20030;-75
2021/09/23 03:28:23;;;;;;;35.50;18.55;;;;;;;10.07;91.02;101713.38;5022927;28;20046;-75
2021/09/23 03:30:50;;;;;;;39.22;19.92;;;;;;;10.07;91.44;101714.25;5017248;28;20124;-75
2021/09/23 03:33:16;;;;;;;33.10;18.52;;;;;;;10.06;91.89;101711.63;5022476;28;20049;-75
2021/09/23 03:35:43;;;;;;;32.28;18.88;;;;;;;10.03;91.89;101720.31;5010323;28;20034;-75
2021/09/23 03:38:10;;;;;;;36.92;19.35;;;;;;;10.03;92.17;101714.25;5015723;28;20058;-75
2021/09/23 03:40:37;;;;;;;31.10;18.55;;;;;;;10.01;92.05;101715.97;4998341;28;20117;-76
2021/09/23 03:43:03;;;;;;;37.33;20.42;;;;;;;9.99;92.07;101707.31;4983920;28;20407;-77
2021/09/23 03:45:30;;;;;;;36.22;19.13;;;;;;;9.95;92.52;101696.91;4983276;28;20050;-76
2021/09/23 03:47:56;;;;;;;30.02;18.75;;;;;;;9.93;92.14;101692.59;4992596;28;20058;-76
2021/09/23 03:50:23;;;;;;;39.78;20.23;;;;;;;9.94;92.64;101694.31;4982756;28;20054;-76
2021/09/23 03:52:49;;;;;;;29.38;19.20;;;;;;;9.95;92.84;101694.31;4987655;28;20054;-77
2021/09/23 03:55:17;;;;;;;29.13;18.40;;;;;;;9.97;92.75;101702.13;4990396;28;20037;-77
2021/09/23 03:57:44;;;;;;;33.70;18.15;;;;;;;10.00;92.74;101698.66;4983792;28;20184;-77
2021/09/23 04:00:13;;;;;;;31.58;18.27;;;;;;;9.99;92.17;101709.91;4980846;28;20054;-76
2021/09/23 04:02:39;;;;;;;39.53;17.90;;;;;;;9.95;92.21;101696.91;4990211;28;20057;-75
2021/09/23 04:05:06;;;;;;;27.65;17.40;;;;;;;9.97;92.43;101696.94;4989678;28;20502;-76
2021/09/23 04:07:33;;;;;;;34.30;18.95;;;;;;;9.94;92.47;101709.91;4991705;28;20422;-76
2021/09/23 04:09:59;;;;;;;31.98;16.88;;;;;;;9.94;92.57;101710.78;4991801;28;20146;-76
2021/09/23 04:12:27;;;;;;;41.75;19.42;;;;;;;9.95;92.76;101709.06;4991673;28;20062;-77
2021/09/23 04:14:53;;;;;;;28.38;18.35;;;;;;;9.93;92.31;101703.84;4997111;28;20782;-76
2021/09/23 04:17:21;;;;;;;31.88;17.13;;;;;;;9.92;92.78;101699.53;4999385;28;20137;-76
2021/09/23 04:19:47;;;;;;;30.15;17.70;;;;;;;9.86;92.74;101694.31;4988270;28;20049;-76
2021/09/23 04:22:14;;;;;;;30.27;17.33;;;;;;;9.86;92.81;101691.72;4992276;28;20045;-76
2021/09/23 04:24:40;;;;;;;31.60;17.35;;;;;;;9.85;92.53;101705.59;4994465;28;20050;-76
2021/09/23 04:27:07;;;;;;;31.65;18.48;;;;;;;9.82;92.61;101705.59;4988164;28;20050;-76
2021/09/23 04:29:35;;;;;;;32.15;18.05;;;;;;;9.78;92.62;101709.06;4985470;28;20054;-76
2021/09/23 04:32:01;;;;;;;28.55;16.80;;;;;;;9.78;92.23;101719.47;4980841;28;20054;-76
2021/09/23 04:34:28;;;;;;;29.55;16.90;;;;;;;9.73;92.33;101714.25;4990862;28;20104;-76
2021/09/23 04:39:22;;;;;;;31.05;17.98;;;;;;;9.74;92.43;101707.31;4996407;28;20053;-74
2021/09/23 04:41:48;;;;;;;29.00;17.20;;;;;;;9.72;92.76;101714.28;4990869;28;20046;-74
2021/09/23 04:44:15;;;;;;;29.23;16.83;;;;;;;9.72;92.52;101716.88;5000821;28;20053;-74
2021/09/23 04:46:43;;;;;;;33.50;17.83;;;;;;;9.70;92.53;101716.00;4996279;28;20105;-72
2021/09/23 04:49:09;;;;;;;24.92;16.73;;;;;;;9.69;92.79;101712.50;4991894;28;20054;-72
2021/09/23 04:51:36;;;;;;;34.28;16.70;;;;;;;9.71;92.34;101715.13;4991152;28;20054;-74
2021/09/23 04:54:03;;;;;;;28.92;16.40;;;;;;;9.71;92.46;101707.34;4999353;28;20050;-74
2021/09/23 04:56:30;;;;;;;29.27;16.90;;;;;;;9.70;92.45;101711.66;4997699;28;20066;-74
2021/09/23 04:58:56;;;;;;;29.20;16.17;;;;;;;9.69;92.96;101707.31;5003962;28;20042;-74
2021/09/23 05:01:23;;;;;;;28.70;16.63;;;;;;;9.68;93.23;101700.41;4991434;28;20494;-73
2021/09/23 05:03:50;;;;;;;31.25;18.10;;;;;;;9.67;93.02;101701.28;4991936;28;20046;-74
2021/09/23 05:06:17;;;;;;;27.25;18.08;;;;;;;9.77;93.55;101702.13;4993396;28;20050;-74
2021/09/23 05:08:43;;;;;;;30.15;18.23;;;;;;;9.73;94.20;101698.66;4993428;28;20050;-72
2021/09/23 05:11:10;;;;;;;31.48;17.95;;;;;;;9.75;94.66;101701.25;4998889;28;20049;-74
2021/09/23 05:13:36;;;;;;;27.85;17.27;;;;;;;9.72;95.38;101706.47;4999992;28;20494;-74
2021/09/23 05:16:03;;;;;;;31.60;17.30;;;;;;;9.77;94.83;101708.22;5002551;28;20046;-74
2021/09/23 05:18:30;;;;;;;35.05;18.00;;;;;;;9.78;95.13;101696.06;4995634;28;20532;-74
2021/09/23 05:20:57;;;;;;;30.85;17.38;;;;;;;9.82;95.06;101694.34;5003300;28;20053;-74
2021/09/23 05:23:24;;;;;;;33.28;17.58;;;;;;;9.82;95.04;101695.22;4997440;28;20141;-74
2021/09/23 05:25:50;;;;;;;30.45;17.50;;;;;;;9.83;95.84;101688.28;4997853;28;20073;-74
2021/09/23 05:28:17;;;;;;;29.90;17.75;;;;;;;9.82;95.65;101691.72;4995568;28;20054;-74
2021/09/23 05:30:43;;;;;;;31.52;17.13;;;;;;;9.84;95.30;101693.47;4999277;28;20042;-74
2021/09/23 05:33:11;;;;;;;26.88;15.77;;;;;;;9.87;95.21;101685.66;4991200;28;20120;-75
2021/09/23 05:35:38;;;;;;;30.48;16.88;;;;;;;9.92;94.83;101685.66;4995447;28;20050;-75
2021/09/23 05:38:06;;;;;;;30.65;17.67;;;;;;;9.92;94.78;101681.34;5001247;28;20058;-74
2021/09/23 05:40:32;;;;;;;22.95;15.73;;;;;;;9.92;94.44;101680.47;4997911;28;20057;-74
2021/09/23 05:42:59;;;;;;;26.73;15.25;;;;;;;9.93;94.77;101677.00;4997755;28;20418;-74
2021/09/23 05:45:25;;;;;;;29.17;15.80;;;;;;;9.95;94.83;101678.72;4994910;28;20053;-74
2021/09/23 05:47:52;;;;;;;31.52;15.90;;;;;;;10.00;94.72;101680.47;5000381;28;20374;-74
2021/09/23 05:50:19;;;;;;;28.15;16.27;;;;;;;10.03;94.76;101675.28;5004433;28;20053;-74
2021/09/23 05:52:45;;;;;;;33.42;16.08;;;;;;;10.04;94.58;101670.06;4993312;28;20449;-74
2021/09/23 05:55:13;;;;;;;26.65;16.52;;;;;;;10.12;94.37;101667.44;4991906;28;20066;-74
2021/09/23 05:57:40;;;;;;;26.98;15.35;;;;;;;10.14;94.98;101652.69;4997748;28;20464;-74
2021/09/23 06:00:09;;;;;;;25.45;15.15;;;;;;;10.18;95.15;101653.56;4995058;28;20469;-74
2021/09/23 06:02:36;;;;;;;30.92;17.25;;;;;;;10.31;94.69;101641.38;5000585;28;20050;-73
2021/09/23 06:05:03;;;;;;;27.33;14.90;;;;;;;10.27;94.88;101641.38;4999269;28;20050;-74
2021/09/23 06:07:29;;;;;;;26.00;15.30;;;;;;;10.37;94.94;101638.75;5001166;28;20108;-75
2021/09/23 06:09:56;;;;;;;26.40;15.23;;;;;;;10.44;94.72;101637.88;4997622;28;20054;-74
2021/09/23 06:12:23;;;;;;;29.55;15.70;;;;;;;10.50;95.17;101632.69;4996531;28;20492;-75
2021/09/23 06:14:50;;;;;;;24.55;13.55;;;;;;;10.58;94.69;101636.09;4992456;28;20046;-74
2021/09/23 06:17:17;;;;;;;22.70;14.55;;;;;;;10.69;94.24;101643.00;4992874;28;20065;-73
2021/09/23 06:19:43;;;;;;;24.95;14.05;;;;;;;10.71;94.20;101644.69;4995488;28;20046;-74
2021/09/23 06:22:10;;;;;;;29.45;14.98;;;;;;;10.79;94.32;101634.25;4997136;28;20076;-74
2021/09/23 06:24:37;;;;;;;24.77;15.48;;;;;;;10.84;93.78;101639.44;4991506;28;20525;-74
2021/09/23 06:27:04;;;;;;;26.42;15.05;;;;;;;10.83;93.80;101635.09;5001324;28;20051;-75
2021/09/23 06:29:32;;;;;;;26.67;15.95;;;;;;;10.86;93.16;101641.16;4998278;28;20057;-74
2021/09/23 06:31:58;;;;;;;23.08;13.50;;;;;;;10.97;93.21;101645.44;4997242;28;20057;-76
2021/09/23 06:34:24;;;;;;;20.25;13.82;;;;;;;11.01;92.93;101645.41;4994953;28;20050;-74
2021/09/23 06:36:51;;;;;;;25.88;14.27;;;;;;;11.09;92.64;101631.47;5000510;28;20049;-74
2021/09/23 06:39:18;;;;;;;21.70;14.25;;;;;;;11.12;92.94;101628.84;4998488;28;20053;-75
2021/09/23 06:41:44;;;;;;;24.63;15.10;;;;;;;11.16;92.32;101627.97;4995191;28;20532;-74
2021/09/23 06:44:11;;;;;;;24.17;13.85;;;;;;;11.21;92.33;101626.16;5000790;28;20058;-74
2021/09/23 06:46:39;;;;;;;26.02;14.30;;;;;;;11.22;92.15;101634.88;5000529;28;20057;-75
2021/09/23 06:49:06;;;;;;;22.90;13.40;;;;;;;11.25;92.62;101632.22;4996997;28;20058;-75
2021/09/23 06:51:32;;;;;;;24.85;14.43;;;;;;;11.40;92.11;101637.31;5002776;28;20050;-75
2021/09/23 06:53:59;;;;;;;20.98;13.20;;;;;;;11.46;91.50;101637.25;5001814;28;20070;-74
2021/09/23 06:56:25;;;;;;;21.00;13.10;;;;;;;11.60;91.01;101638.88;4993874;28;20045;-74
2021/09/23 06:58:52;;;;;;;22.25;13.38;;;;;;;11.78;90.46;101636.09;4995235;28;20050;-75
2021/09/23 07:01:18;;;;;;;21.67;13.52;;;;;;;11.69;90.39;101627.50;4992981;28;20046;-74
2021/09/23 07:03:46;;;;;;;21.30;13.18;;;;;;;11.80;90.26;101625.66;4989682;28;20061;-74
2021/09/23 07:06:12;;;;;;;20.08;13.25;;;;;;;11.81;90.23;101624.78;4998562;28;20055;-73
2021/09/23 07:08:39;;;;;;;23.77;13.75;;;;;;;11.83;89.88;101634.31;5000236;28;20058;-74
2021/09/23 07:11:05;;;;;;;20.38;13.57;;;;;;;11.82;90.62;101640.41;5001895;28;20053;-74
2021/09/23 07:13:31;;;;;;;23.85;12.90;;;;;;;11.93;90.74;101636.81;4999738;28;20723;-74
2021/09/23 07:15:59;;;;;;;24.33;13.20;;;;;;;12.06;90.23;101643.66;4994011;28;20081;-75
2021/09/23 07:18:26;;;;;;;24.60;14.48;;;;;;;12.09;90.09;101638.44;4994830;28;20094;-75
2021/09/23 07:20:55;;;;;;;20.10;12.77;;;;;;;12.12;90.03;101633.19;4993402;28;20085;-75
2021/09/23 07:23:22;;;;;;;21.38;12.80;;;;;;;12.21;89.62;101626.97;4995725;28;20078;-75
2021/09/23 07:25:48;;;;;;;22.38;12.95;;;;;;;12.52;87.96;101621.38;4995065;28;20489;-75
2021/09/23 07:28:16;;;;;;;20.23;13.63;;;;;;;12.54;88.18;101624.84;4995572;28;20096;-74
2021/09/23 07:30:42;;;;;;;19.25;13.40;;;;;;;12.60;88.21;101616.06;4993005;28;20042;-74
2021/09/23 07:33:10;;;;;;;23.95;15.45;;;;;;;12.58;88.26;101613.47;5004091;28;20528;-75
2021/09/23 07:35:36;;;;;;;25.42;14.15;;;;;;;12.75;87.05;101609.78;4997657;28;20145;-75
2021/09/23 07:38:05;;;;;;;20.27;13.18;;;;;;;12.81;87.65;101608.81;4997420;28;20529;-74
2021/09/23 07:40:32;;;;;;;21.50;13.35;;;;;;;13.02;86.08;101624.19;4991406;28;20065;-75
2021/09/23 07:42:58;;;;;;;25.08;13.07;;;;;;;13.27;85.28;101615.09;4995521;28;20054;-72
2021/09/23 07:45:25;;;;;;;19.48;12.55;;;;;;;13.23;85.83;101627.31;4994634;28;20053;-75
2021/09/23 07:47:52;;;;;;;24.33;13.45;;;;;;;13.31;84.87;101621.97;4992692;28;20061;-75
2021/09/23 07:50:18;;;;;;;19.58;12.05;;;;;;;13.43;84.51;101629.66;4996647;28;20132;-76
2021/09/23 07:52:45;;;;;;;18.27;12.20;;;;;;;13.54;83.50;101619.00;4995940;28;20081;-74
2021/09/23 07:55:13;;;;;;;20.60;12.23;;;;;;;13.75;83.04;101607.31;5005453;28;20054;-74
2021/09/23 07:57:39;;;;;;;23.33;12.68;;;;;;;13.81;82.45;101606.34;4995252;28;20108;-75
2021/09/23 08:00:07;;;;;;;20.48;10.85;;;;;;;13.88;81.89;101605.31;4990847;28;20113;-74
2021/09/23 08:02:34;;;;;;;20.55;12.00;;;;;;;13.75;82.58;101601.22;4991436;28;20065;-74
2021/09/23 08:05:00;;;;;;;18.88;12.38;;;;;;;13.68;82.58;101584.75;4991284;28;20391;-74
2021/09/23 08:07:27;;;;;;;20.05;11.10;;;;;;;13.73;82.56;101582.06;4992266;28;20109;-73
2021/09/23 08:09:53;;;;;;;17.90;11.18;;;;;;;13.76;82.59;101568.94;4993726;28;21430;-74
2021/09/23 08:12:21;;;;;;;19.02;11.30;;;;;;;13.84;82.41;101567.03;4999656;28;20045;-74
2021/09/23 08:14:47;;;;;;;17.02;10.55;;;;;;;14.04;81.24;101555.31;4997613;28;20053;-73
2021/09/23 08:17:14;;;;;;;20.80;10.82;;;;;;;14.12;80.83;101558.66;4996794;28;20050;-73
2021/09/23 08:19:40;;;;;;;24.20;12.52;;;;;;;14.13;81.19;101560.34;4998884;28;20493;-73
2021/09/23 08:22:08;;;;;;;29.05;13.07;;;;;;;14.09;81.85;101563.94;5008339;28;21055;-73
2021/09/23 08:24:35;;;;;;;18.42;11.13;;;;;;;14.28;81.14;101560.03;4999505;28;20042;-77
2021/09/23 08:27:02;;;;;;;18.58;10.35;;;;;;;14.29;81.39;101559.16;4994567;28;20054;-73
2021/09/23 08:29:29;;;;;;;19.65;10.45;;;;;;;14.35;81.14;101559.91;4995270;28;20070;-74
2021/09/23 08:31:56;;;;;;;19.25;11.32;;;;;;;14.49;80.36;101552.63;4999581;28;20520;-73
2021/09/23 08:34:23;;;;;;;17.65;11.23;;;;;;;14.70;78.78;101547.81;4996695;28;20042;-74
2021/09/23 08:36:49;;;;;;;16.48;9.77;;;;;;;14.86;78.35;101537.84;4996080;28;20046;-71
2021/09/23 08:39:16;;;;;;;15.15;9.88;;;;;;;14.89;78.58;101535.13;4997157;28;20053;-71
2021/09/23 08:41:42;;;;;;;18.70;10.02;;;;;;;14.90;78.18;101514.16;4996837;28;20050;-74
2021/09/23 08:44:09;;;;;;;14.98;9.70;;;;;;;15.10;76.97;101520.66;5000509;28;20046;-75
2021/09/23 08:46:37;;;;;;;19.85;11.32;;;;;;;15.12;77.29;101516.22;4999391;28;21623;-74
2021/09/23 08:49:04;;;;;;;17.40;9.77;;;;;;;15.25;76.97;101524.63;4995330;28;20061;-75
2021/09/23 08:51:31;;;;;;;17.33;10.25;;;;;;;15.25;76.86;101519.38;4997239;28;20049;-73
2021/09/23 08:53:58;;;;;;;18.38;10.48;;;;;;;15.17;77.21;101526.59;4999431;28;20050;-73
2021/09/23 08:56:24;;;;;;;16.15;10.18;;;;;;;15.38;76.47;101514.66;4998728;28;20050;-73
2021/09/23 08:58:51;;;;;;;23.73;10.57;;;;;;;15.51;76.14;101515.19;5003088;28;20417;-74
2021/09/23 09:01:18;;;;;;;16.80;9.57;;;;;;;15.51;76.35;101502.97;4998212;28;20046;-73
2021/09/23 09:03:47;;;;;;;18.40;9.70;;;;;;;15.52;75.99;101498.56;4991431;28;20062;-74
2021/09/23 09:06:14;;;;;;;15.88;9.65;;;;;;;15.44;76.15;101498.75;4998717;28;20057;-73
2021/09/23 09:08:43;;;;;;;15.25;9.00;;;;;;;15.58;76.13;101506.25;5002059;28;20050;-73
2021/09/23 09:11:12;;;;;;;15.70;9.57;;;;;;;15.53;75.99;101501.13;4991204;28;20054;-74
2021/09/23 09:13:41;;;;;;;19.00;10.05;;;;;;;15.59;75.32;101489.63;4996316;28;20117;-75
2021/09/23 09:16:10;;;;;;;14.90;9.35;;;;;;;15.73;75.04;101491.84;4998753;28;20136;-74
2021/09/23 09:18:37;;;;;;;15.63;9.38;;;;;;;15.93;74.02;101493.06;4995478;28;20073;-71
2021/09/23 09:21:09;;;;;;;16.55;8.82;;;;;;;15.88;74.93;101493.19;4998905;28;20083;-74
2021/09/23 09:23:41;;;;;;;14.02;9.10;;;;;;;15.93;74.59;101500.94;4999859;28;20136;-72
2021/09/23 09:26:08;;;;;;;18.77;9.32;;;;;;;15.98;74.56;101502.50;4991765;28;20058;-74
2021/09/23 09:28:46;;;;;;;16.42;9.23;;;;;;;16.04;74.78;101511.97;4995305;28;20164;-74
2021/09/23 09:31:13;;;;;;;13.95;8.98;;;;;;;16.19;74.21;101512.44;4997156;28;20045;-72
2021/09/23 09:33:41;;;;;;;14.77;9.43;;;;;;;16.31;74.41;101512.91;4999535;28;20050;-73
2021/09/23 09:36:26;;;;;;;16.00;10.13;;;;;;;16.43;72.89;101503.78;4997502;28;20053;-74
2021/09/23 09:38:53;;;;;;;18.23;9.15;;;;;;;16.56;73.57;101500.78;4990842;28;20056;-74
2021/09/23 09:41:24;;;;;;;17.20;10.80;;;;;;;16.55;73.77;101506.94;4998859;28;20056;-74
2021/09/23 09:43:51;;;;;;;18.33;11.85;;;;;;;16.59;74.47;101503.31;4993789;28;20078;-75
2021/09/23 09:46:24;;;;;;;23.45;11.27;;;;;;;16.67;74.70;101501.28;4992768;28;20050;-72
2021/09/23 09:48:52;;;;;;;16.80;10.77;;;;;;;16.68;75.37;101491.63;4993384;28;20042;-74
2021/09/23 09:51:23;;;;;;;19.40;12.10;;;;;;;16.86;74.62;101488.41;4998344;28;20194;-74
2021/09/23 09:53:59;;;;;;;19.27;11.70;;;;;;;16.87;75.27;101484.84;4998727;28;20473;-74
2021/09/23 09:56:26;;;;;;;24.17;10.52;;;;;;;17.14;74.99;101484.88;4999329;28;20132;-74
2021/09/23 09:59:12;;;;;;;19.08;11.25;;;;;;;17.37;74.12;101464.75;4997376;28;20406;-74
2021/09/23 10:01:39;;;;;;;19.60;11.23;;;;;;;17.30;74.43;101450.13;4990649;28;20100;-74
2021/09/23 10:04:06;;;;;;;17.30;10.35;;;;;;;17.43;73.44;101448.78;4994424;28;20088;-73
2021/09/23 10:06:34;;;;;;;17.55;10.77;;;;;;;17.51;72.89;101456.41;4998944;28;20041;-73
2021/09/23 10:09:01;;;;;;;21.45;11.05;;;;;;;17.50;73.04;101463.41;4995382;28;20074;-74
2021/09/23 10:11:28;;;;;;;19.60;11.48;;;;;;;17.62;72.47;101469.97;5001607;28;20058;-73
2021/09/23 10:13:55;;;;;;;18.40;11.10;;;;;;;17.60;72.98;101469.22;4997016;28;20124;-73
2021/09/23 10:16:22;;;;;;;18.95;10.80;;;;;;;17.60;72.99;101469.22;4997909;28;20058;-74
2021/09/23 10:18:49;;;;;;;19.98;12.02;;;;;;;17.64;72.46;101456.78;4996772;28;20054;-74
2021/09/23 10:21:16;;;;;;;23.27;11.48;;;;;;;17.63;72.84;101466.44;4991561;28;20513;-73
2021/09/23 10:23:45;;;;;;;18.15;11.93;;;;;;;17.56;72.77;101460.56;4998624;28;20069;-73
2021/09/23 10:26:16;;;;;;;26.08;12.98;;;;;;;17.60;73.15;101463.06;4998412;28;20053;-72
2021/09/23 10:28:46;;;;;;;18.55;12.55;;;;;;;17.54;73.06;101457.13;4996349;28;20414;-73
2021/09/23 10:31:17;;;;;;;22.55;13.52;;;;;;;17.57;73.46;101456.16;4997560;28;20054;-73
2021/09/23 10:33:45;;;;;;;19.90;12.65;;;;;;;17.57;73.18;101464.06;4989184;28;20053;-74
2021/09/23 10:36:11;;;;;;;21.63;13.63;;;;;;;17.61;72.70;101473.56;4989353;28;20057;-73
2021/09/23 10:38:39;;;;;;;19.60;12.60;;;;;;;17.57;73.16;101466.69;4990101;28;20426;-75
2021/09/23 10:41:11;;;;;;;19.00;12.98;;;;;;;17.62;72.65;101466.50;5013792;23;20043;-76
2021/09/23 10:43:39;;;;;;;21.77;12.68;;;;;;;17.56;73.21;101457.94;4977658;28;20062;-75
2021/09/23 10:46:24;;;;;;;16.92;11.80;;;;;;;17.69;72.39;101454.81;4980223;28;20150;-75
2021/09/23 10:48:53;;;;;;;15.60;9.70;;;;;;;17.72;72.93;101437.16;4984667;28;20051;-75
2021/09/23 10:51:19;;;;;;;17.50;10.25;;;;;;;17.77;71.44;101447.50;4987395;28;20058;-76
2021/09/23 10:53:52;;;;;;;17.33;10.95;;;;;;;17.72;71.75;101437.16;4983388;28;20069;-75
2021/09/23 10:56:21;;;;;;;18.00;10.95;;;;;;;17.88;71.44;101431.31;4982054;28;20093;-78
2021/09/23 10:58:50;;;;;;;17.27;9.48;;;;;;;17.92;71.34;101447.84;4980843;28;20532;-76
2021/09/23 11:01:22;;;;;;;13.32;9.02;;;;;;;18.10;71.69;101448.94;4988457;28;20046;-77
2021/09/23 11:03:50;;;;;;;13.70;9.23;;;;;;;18.38;69.75;101448.66;4984851;28;20046;-77
2021/09/23 11:06:17;;;;;;;15.57;8.70;;;;;;;18.45;70.19;101450.16;4984623;28;20054;-76
2021/09/23 11:08:46;;;;;;;16.63;10.20;;;;;;;18.64;69.24;101444.97;4981890;28;20497;-76
2021/09/23 11:11:14;;;;;;;16.38;9.95;;;;;;;18.72;69.29;101435.88;4982550;28;20054;-77
2021/09/23 11:13:42;;;;;;;12.80;8.40;;;;;;;18.73;69.80;101434.94;4993631;28;20050;-77
2021/09/23 11:16:11;;;;;;;15.95;9.00;;;;;;;18.73;68.97;101435.81;4988593;28;20516;-77